Time;durP1;ratioP1;P1;durP2;ratioP2;P2;SDS_P1;SDS_P2;PMS_P1;PMS_P2;Temp;Humidity;BMP_temperature;BMP_pressure;BME280_temperature;BME280_humidity;BME280_pressure;Samples;Min_cycle;Max_cycle;Signal;HPM_P1;HPM_P2
2021/12/05 21:17:56;;;;;;;41.77;20.37;;;2.70;99.90;;;;;;5134213;22;20265;-94
2021/12/05 21:20:34;;;;;;;45.83;22.63;;;2.70;99.90;;;;;;5117280;27;20331;-96
2021/12/05 21:23:02;;;;;;;39.53;21.80;;;2.70;99.90;;;;;;5118403;27;20209;-96
2021/12/05 21:25:32;;;;;;;39.57;21.10;;;2.70;99.90;;;;;;5119969;27;20180;-96
2021/12/05 21:27:59;;;;;;;37.13;19.93;;;2.70;99.90;;;;;;5120011;27;20183;-96
2021/12/05 21:30:28;;;;;;;41.17;20.63;;;2.70;99.90;;;;;;5117658;27;20195;-96
2021/12/05 21:32:55;;;;;;;39.63;19.63;;;2.70;99.90;;;;;;5122962;27;20187;-96
2021/12/05 21:35:22;;;;;;;33.10;18.60;;;2.60;99.90;;;;;;5117498;28;20183;-96
2021/12/05 21:37:51;;;;;;;34.30;18.83;;;2.70;99.90;;;;;;5116836;27;20190;-96
2021/12/05 21:40:24;;;;;;;30.87;17.27;;;2.60;99.90;;;;;;5117234;28;20176;-95
2021/12/05 21:42:51;;;;;;;33.80;18.47;;;2.60;99.90;;;;;;5115688;28;20625;-96
2021/12/05 21:45:18;;;;;;;34.23;18.67;;;2.60;99.90;;;;;;5120325;27;20183;-96
2021/12/05 21:48:13;;;;;;;34.57;18.30;;;2.60;99.90;;;;;;5118641;27;20175;-96
2021/12/05 21:51:11;;;;;;;45.27;22.67;;;2.60;99.90;;;;;;5116625;27;20298;-96
2021/12/05 21:54:00;;;;;;;48.17;24.13;;;2.70;99.90;;;;;;5116226;27;20248;-94
2021/12/05 21:56:41;;;;;;;54.27;25.43;;;2.70;99.90;;;;;;5117032;27;20195;-94
2021/12/05 21:59:19;;;;;;;52.90;25.60;;;2.60;99.90;;;;;;5116864;27;20204;-94
2021/12/05 22:01:46;;;;;;;60.20;28.87;;;2.60;99.90;;;;;;5114393;27;20186;-93
2021/12/05 22:04:12;;;;;;;57.80;27.33;;;2.50;99.90;;;;;;5108310;28;20666;-93
2021/12/05 22:06:38;;;;;;;56.43;26.37;;;2.50;99.90;;;;;;5116234;28;20184;-94
2021/12/05 22:09:07;;;;;;;55.93;26.23;;;2.50;99.90;;;;;;5116693;28;20187;-94
2021/12/05 22:11:33;;;;;;;58.90;27.17;;;2.50;99.90;;;;;;5119344;27;20211;-95
2021/12/05 22:13:59;;;;;;;63.77;29.73;;;2.50;99.90;;;;;;5119905;27;20635;-96
2021/12/05 22:16:27;;;;;;;59.73;27.20;;;2.40;99.90;;;;;;5118919;28;20733;-95
2021/12/05 22:19:09;;;;;;;66.53;28.70;;;2.50;99.90;;;;;;5116137;28;20223;-96
2021/12/05 22:21:39;;;;;;;61.33;28.17;;;2.50;99.90;;;;;;5117007;28;20172;-93
2021/12/05 22:24:07;;;;;;;61.27;27.63;;;2.40;99.90;;;;;;5117222;28;20222;-94
2021/12/05 22:26:36;;;;;;;63.17;29.53;;;2.40;99.90;;;;;;5117082;28;20172;-94
2021/12/05 22:29:05;;;;;;;57.50;27.93;;;2.40;99.90;;;;;;5116663;28;20606;-95
2021/12/05 22:31:33;;;;;;;59.63;27.87;;;2.40;99.90;;;;;;5117208;28;20211;-94
2021/12/05 22:34:02;;;;;;;61.03;28.17;;;2.40;99.90;;;;;;5115707;28;20187;-94
2021/12/05 22:36:29;;;;;;;59.57;28.30;;;2.40;99.90;;;;;;5117081;28;20527;-94
2021/12/05 22:38:56;;;;;;;62.73;27.80;;;2.40;99.90;;;;;;5117484;28;20180;-94
2021/12/05 22:41:22;;;;;;;60.70;27.70;;;2.40;99.90;;;;;;5104226;28;20190;-96
2021/12/05 22:43:49;;;;;;;58.50;28.00;;;2.40;99.90;;;;;;5100293;28;20190;-94
2021/12/05 22:46:16;;;;;;;60.63;27.97;;;2.40;99.90;;;;;;5101472;28;20187;-95
2021/12/05 22:48:43;;;;;;;58.53;27.97;;;2.50;99.90;;;;;;5099832;28;20222;-96
2021/12/05 22:51:10;;;;;;;62.27;30.20;;;2.50;99.90;;;;;;5100048;28;20207;-94
2021/12/05 22:53:36;;;;;;;66.10;30.17;;;2.40;99.90;;;;;;5101293;28;20176;-94
2021/12/05 22:56:01;;;;;;;67.37;29.20;;;2.40;99.90;;;;;;5099975;28;20228;-94
2021/12/05 22:58:29;;;;;;;58.73;27.53;;;2.50;99.90;;;;;;5100666;28;20186;-96
2021/12/05 23:01:20;;;;;;;63.40;29.53;;;2.50;99.90;;;;;;5099861;28;20188;-96
2021/12/05 23:03:51;;;;;;;64.93;29.67;;;2.50;99.90;;;;;;5099733;28;20186;-96
2021/12/05 23:06:19;;;;;;;55.83;28.23;;;2.50;99.90;;;;;;5100246;28;20220;-96
2021/12/05 23:08:46;;;;;;;55.67;27.50;;;2.50;99.90;;;;;;5101087;28;20179;-96
2021/12/05 23:11:14;;;;;;;56.23;27.83;;;2.50;99.90;;;;;;5113968;28;20214;-96
2021/12/05 23:13:42;;;;;;;61.17;28.43;;;2.40;99.90;;;;;;5119289;28;20649;-96
2021/12/05 23:16:10;;;;;;;58.00;27.63;;;2.30;99.90;;;;;;5121482;28;20226;-96
2021/12/05 23:18:37;;;;;;;53.67;27.13;;;2.30;99.90;;;;;;5118253;28;20227;-96
2021/12/05 23:21:14;;;;;;;54.80;24.70;;;2.30;99.90;;;;;;5119267;28;20236;-95
2021/12/05 23:23:42;;;;;;;55.33;27.40;;;2.30;99.90;;;;;;5122026;28;20277;-94
2021/12/05 23:26:08;;;;;;;55.73;26.63;;;2.30;99.90;;;;;;5120528;28;20616;-96
2021/12/05 23:28:34;;;;;;;58.60;27.37;;;2.20;99.90;;;;;;5122326;28;20266;-95
2021/12/05 23:31:12;;;;;;;54.70;27.53;;;2.30;99.90;;;;;;5122777;28;20210;-94
2021/12/05 23:33:39;;;;;;;55.80;28.17;;;2.30;99.90;;;;;;5125228;28;20648;-94
2021/12/05 23:36:05;;;;;;;56.90;26.97;;;2.30;99.90;;;;;;5554686;22;20673;-91
2021/12/05 23:38:31;;;;;;;52.73;26.70;;;2.30;99.90;;;;;;5080990;28;20187;-92
2021/12/05 23:40:59;;;;;;;53.20;26.77;;;2.30;99.90;;;;;;5080995;28;20172;-92
2021/12/05 23:43:25;;;;;;;54.80;26.73;;;2.40;99.90;;;;;;5081050;28;20184;-92
2021/12/05 23:45:52;;;;;;;54.30;28.03;;;2.40;99.90;;;;;;5080839;28;20173;-92
2021/12/05 23:48:22;;;;;;;58.77;27.87;;;2.30;99.90;;;;;;5080968;28;20610;-92
2021/12/05 23:50:55;;;;;;;55.73;26.93;;;2.30;99.90;;;;;;5080444;28;20227;-91
2021/12/05 23:53:23;;;;;;;59.50;30.27;;;2.20;99.90;;;;;;5080654;28;20172;-92
2021/12/05 23:55:50;;;;;;;62.20;29.07;;;2.20;99.90;;;;;;5080747;28;20535;-92
2021/12/05 23:58:21;;;;;;;54.20;27.53;;;2.20;99.90;;;;;;5080519;28;20679;-92
